createdAt,value
2022-09-04T00:02:42.643Z,16.08
2022-09-04T00:05:43.825Z,16.08
2022-09-04T00:08:50.635Z,16.00
2022-09-04T00:11:55.623Z,15.92
2022-09-04T00:14:42.061Z,15.91
2022-09-04T00:17:43.629Z,15.78
2022-09-04T00:20:45.667Z,15.80
2022-09-04T00:23:42.628Z,15.71
2022-09-04T00:26:46.938Z,15.70
2022-09-04T00:29:45.584Z,15.66
2022-09-04T00:32:41.207Z,15.62
2022-09-04T00:35:37.578Z,15.57
2022-09-04T00:38:26.196Z,15.61
2022-09-04T00:41:47.584Z,15.56
2022-09-04T00:44:37.577Z,15.47
2022-09-04T00:47:54.749Z,15.49
2022-09-04T00:51:01.599Z,15.42
2022-09-04T00:54:15.656Z,15.38
2022-09-04T00:57:31.579Z,15.32
2022-09-04T01:00:22.583Z,15.28
2022-09-04T01:03:40.331Z,15.28
2022-09-04T01:06:42.551Z,15.18
2022-09-04T01:09:58.645Z,15.16
2022-09-04T01:12:53.579Z,15.07
2022-09-04T01:15:52.996Z,15.04
2022-09-04T01:19:21.512Z,15.00
2022-09-04T01:22:27.540Z,14.93
2022-09-04T01:25:58.554Z,14.85
2022-09-04T01:29:00.498Z,14.81
2022-09-04T01:32:09.545Z,14.86
2022-09-04T01:35:17.532Z,14.82
2022-09-04T01:38:09.625Z,14.85
2022-09-04T01:41:06.497Z,14.80
2022-09-04T01:43:46.638Z,14.82
2022-09-04T01:46:36.485Z,14.81
2022-09-04T01:49:23.727Z,14.77
2022-09-04T01:52:28.491Z,14.77
2022-09-04T01:55:27.671Z,14.86
2022-09-04T01:58:21.483Z,14.75
2022-09-04T02:01:27.533Z,14.86
2022-09-04T02:04:16.314Z,14.86
2022-09-04T02:07:22.465Z,14.90
2022-09-04T02:10:09.021Z,14.92
2022-09-04T02:13:09.498Z,14.89
2022-09-04T02:16:14.506Z,14.91
2022-09-04T02:19:04.464Z,14.89
2022-09-04T02:21:57.647Z,14.81
2022-09-04T02:24:55.482Z,14.77
2022-09-04T02:28:08.491Z,14.81
2022-09-04T02:31:16.468Z,14.73
2022-09-04T02:34:13.469Z,14.80
2022-09-04T02:36:57.550Z,14.69
2022-09-04T02:39:56.494Z,14.69
2022-09-04T02:42:54.618Z,14.68
2022-09-04T02:46:00.417Z,14.66
2022-09-04T02:48:59.741Z,14.76
2022-09-04T02:52:30.431Z,14.79
2022-09-04T02:55:37.438Z,14.82
2022-09-04T02:58:33.552Z,14.92
2022-09-04T03:01:35.497Z,15.04
2022-09-04T03:04:30.430Z,15.16
2022-09-04T03:25:51.021Z,14.93
2022-09-04T03:28:50.009Z,15.03
2022-09-04T03:31:55.225Z,15.03
2022-09-04T03:34:48.027Z,14.99
2022-09-04T03:38:05.991Z,15.09
2022-09-04T03:41:04.529Z,15.03
2022-09-04T03:44:12.982Z,15.16
2022-09-04T03:47:06.019Z,15.10
2022-09-04T03:50:23.949Z,15.14
2022-09-04T03:53:23.301Z,15.09
2022-09-04T03:56:21.999Z,15.18
2022-09-04T03:59:20.082Z,15.02
2022-09-04T04:02:09.989Z,14.94
2022-09-04T04:05:27.976Z,15.01
2022-09-04T04:08:23.384Z,14.96
2022-09-04T04:11:13.002Z,14.97
2022-09-04T04:14:21.066Z,15.16
2022-09-04T04:17:32.951Z,15.25
2022-09-04T04:20:36.795Z,15.31
2022-09-04T04:23:29.962Z,15.58
2022-09-04T04:26:14.237Z,15.66
2022-09-04T04:29:14.933Z,15.72
2022-09-04T04:32:19.915Z,16.23
2022-09-04T04:35:16.509Z,16.88
2022-09-04T04:38:26.931Z,17.45
2022-09-04T04:41:30.944Z,17.55
2022-09-04T04:44:26.919Z,18.20
2022-09-04T04:47:55.938Z,18.58
2022-09-04T04:51:17.853Z,18.39
2022-09-04T04:54:15.927Z,18.08
2022-09-04T04:57:33.911Z,18.80
2022-09-04T05:00:31.921Z,18.89
2022-09-04T05:03:49.886Z,19.06
2022-09-04T05:07:12.926Z,20.54
2022-09-04T05:10:19.875Z,19.86
2022-09-04T05:13:23.915Z,20.48
2022-09-04T05:16:54.838Z,20.87
2022-09-04T05:19:50.402Z,20.82
2022-09-04T05:22:40.640Z,21.18
2022-09-04T05:25:40.886Z,20.87
2022-09-04T05:28:35.861Z,20.77
2022-09-04T05:31:44.905Z,21.64
2022-09-04T05:35:02.822Z,22.04
2022-09-04T05:38:11.881Z,22.57
2022-09-04T05:41:10.874Z,22.48
2022-09-04T05:44:26.881Z,22.61
2022-09-04T05:50:57.845Z,23.96
2022-09-04T05:54:00.788Z,24.27
2022-09-04T05:56:58.937Z,23.79
2022-09-04T06:00:04.852Z,23.87
2022-09-04T06:02:57.027Z,24.39
2022-09-04T06:06:07.826Z,24.66
2022-09-04T06:09:16.839Z,25.28
2022-09-04T06:12:24.807Z,25.69
2022-09-04T06:15:27.778Z,26.08
2022-09-04T06:18:29.549Z,25.35
2022-09-04T06:21:31.851Z,25.92
2022-09-04T06:24:34.822Z,25.81
2022-09-04T06:27:55.827Z,26.88
2022-09-04T06:31:08.833Z,27.03
2022-09-04T06:34:05.776Z,26.56
2022-09-04T06:37:09.962Z,26.74
2022-09-04T06:40:21.814Z,27.22
2022-09-04T06:43:30.788Z,27.38
2022-09-04T06:46:39.451Z,27.74
2022-09-04T06:49:46.820Z,27.72
2022-09-04T06:52:38.922Z,28.39
2022-09-04T06:55:56.785Z,27.38
2022-09-04T06:59:17.775Z,27.82
2022-09-04T07:02:27.268Z,28.57
2022-09-04T07:05:38.777Z,28.47
2022-09-04T07:08:30.851Z,27.97
2022-09-04T07:11:23.761Z,28.93
2022-09-04T07:14:41.769Z,28.48
2022-09-04T07:17:45.763Z,28.19
2022-09-04T07:20:49.876Z,28.63
2022-09-04T07:24:08.759Z,28.96
2022-09-04T07:27:05.762Z,29.91
2022-09-04T07:30:21.866Z,29.50
2022-09-04T07:33:23.738Z,29.87
2022-09-04T07:36:11.853Z,29.88
2022-09-04T07:39:06.753Z,30.75
2022-09-04T07:41:55.943Z,32.09
2022-09-04T07:44:58.746Z,33.59
2022-09-04T07:48:02.701Z,32.08
2022-09-04T07:51:14.948Z,31.92
2022-09-04T07:54:22.920Z,31.69
2022-09-04T07:57:21.285Z,32.06
2022-09-04T08:00:27.720Z,32.98
2022-09-04T08:03:53.737Z,32.30
2022-09-04T08:06:49.695Z,33.60
2022-09-04T08:09:50.371Z,33.79
2022-09-04T08:12:58.670Z,34.74
2022-09-04T08:15:50.082Z,35.13
2022-09-04T08:18:59.730Z,34.21
2022-09-04T08:21:49.692Z,35.49
2022-09-04T08:24:45.817Z,35.11
2022-09-04T08:27:36.712Z,32.66
2022-09-04T08:30:35.731Z,34.01
2022-09-04T08:33:49.158Z,34.64
2022-09-04T08:36:53.666Z,34.61
2022-09-04T08:40:12.681Z,32.02
2022-09-04T08:43:26.661Z,30.83
2022-09-04T08:46:30.174Z,31.58
2022-09-04T08:49:53.679Z,29.30
2022-09-04T08:53:04.127Z,28.39
2022-09-04T08:55:56.680Z,27.75
2022-09-04T08:58:57.769Z,29.34
2022-09-04T09:02:09.690Z,33.53
2022-09-04T09:05:24.661Z,32.19
2022-09-04T09:08:46.174Z,29.58
2022-09-04T09:11:56.635Z,29.60
2022-09-04T09:15:04.657Z,30.55
2022-09-04T09:18:24.732Z,30.55
2022-09-04T09:21:39.474Z,29.20
2022-09-04T09:24:53.617Z,27.88
2022-09-04T09:27:52.702Z,27.75
2022-09-04T09:31:05.748Z,26.38
2022-09-04T09:34:27.466Z,26.14
2022-09-04T09:37:29.630Z,25.45
2022-09-04T09:40:24.017Z,26.71
2022-09-04T09:43:16.628Z,31.18
2022-09-04T09:46:35.174Z,30.37
2022-09-04T09:49:58.621Z,32.04
2022-09-04T09:53:10.630Z,34.80
2022-09-04T09:55:57.172Z,33.28
2022-09-04T09:59:01.622Z,29.61
2022-09-04T10:02:18.923Z,29.41
2022-09-04T10:05:33.599Z,28.32
2022-09-04T10:08:37.577Z,27.05
2022-09-04T10:11:52.606Z,27.72
2022-09-04T10:14:54.748Z,27.06
2022-09-04T10:17:47.598Z,26.45
2022-09-04T10:20:49.540Z,25.98
2022-09-04T10:24:05.595Z,25.99
2022-09-04T10:27:01.571Z,26.53
2022-09-04T10:30:07.663Z,26.44
2022-09-04T10:33:01.533Z,25.86
2022-09-04T10:35:59.669Z,26.11
2022-09-04T10:39:39.614Z,26.49
2022-09-04T10:42:49.675Z,26.43
2022-09-04T10:45:42.636Z,26.82
2022-09-04T10:49:15.561Z,26.61
2022-09-04T10:52:23.541Z,26.07
2022-09-04T10:55:28.556Z,26.02
2022-09-04T10:58:39.940Z,26.71
2022-09-04T11:01:47.502Z,26.80
2022-09-04T11:05:06.543Z,26.60
2022-09-04T11:08:20.530Z,26.57
2022-09-04T11:11:22.467Z,25.47
2022-09-04T11:15:00.540Z,25.65
2022-09-04T11:18:39.535Z,25.20
2022-09-04T11:22:07.517Z,25.12
2022-09-04T11:25:33.542Z,25.43
2022-09-04T11:28:15.760Z,25.62
2022-09-04T11:31:33.608Z,25.19
2022-09-04T11:34:33.198Z,24.79
2022-09-04T11:37:57.433Z,25.47
2022-09-04T11:40:38.043Z,24.96
2022-09-04T11:43:43.493Z,25.09
2022-09-04T11:46:33.008Z,25.10
2022-09-04T11:49:37.503Z,24.99
2022-09-04T11:53:02.481Z,25.15
2022-09-04T11:56:01.630Z,25.56
2022-09-04T11:58:48.504Z,25.75
2022-09-04T12:01:31.582Z,25.90
2022-09-04T12:04:34.525Z,26.18
2022-09-04T12:07:42.953Z,26.21
2022-09-04T12:10:50.509Z,25.89
2022-09-04T12:14:05.645Z,25.60
2022-09-04T12:17:12.458Z,25.75
2022-09-04T12:20:13.462Z,25.53
2022-09-04T12:22:55.838Z,25.33
2022-09-04T12:26:13.440Z,25.17
2022-09-04T12:29:23.460Z,25.15
2022-09-04T12:32:57.581Z,25.46
2022-09-04T12:36:16.501Z,25.65
2022-09-04T12:39:37.497Z,25.56
2022-09-04T12:42:46.420Z,25.28
2022-09-04T12:45:36.623Z,25.39
2022-09-04T12:48:40.424Z,25.46
2022-09-04T12:51:31.422Z,25.49
2022-09-04T12:54:38.437Z,25.13
2022-09-04T12:57:33.015Z,24.80
2022-09-04T13:00:23.450Z,24.51
2022-09-04T13:03:11.188Z,24.43
2022-09-04T13:06:08.853Z,24.53
2022-09-04T13:09:15.414Z,24.44
2022-09-04T13:12:20.404Z,24.25
2022-09-04T13:15:19.544Z,24.28
2022-09-04T13:18:30.413Z,24.26
2022-09-04T13:21:46.441Z,24.36
2022-09-04T13:24:48.416Z,24.33
2022-09-04T13:28:21.421Z,24.33
2022-09-04T13:31:22.531Z,24.27
2022-09-04T13:34:31.414Z,24.35
2022-09-04T13:38:00.370Z,24.33
2022-09-04T13:41:24.368Z,24.40
2022-09-04T13:44:47.347Z,24.24
2022-09-04T13:47:40.384Z,23.90
2022-09-04T13:50:49.349Z,24.09
2022-09-04T13:53:47.369Z,24.12
2022-09-04T13:56:46.500Z,24.01
2022-09-04T13:59:29.374Z,23.99
2022-09-04T14:02:14.839Z,23.75
2022-09-04T14:05:03.371Z,24.00
2022-09-04T14:07:47.687Z,23.70
2022-09-04T14:10:37.337Z,23.64
2022-09-04T14:13:58.371Z,23.41
2022-09-04T14:16:38.575Z,23.55
2022-09-04T14:19:49.345Z,23.67
2022-09-04T14:23:03.357Z,23.59
2022-09-04T14:26:13.338Z,23.54
2022-09-04T14:29:26.354Z,23.55
2022-09-04T14:32:18.823Z,23.52
2022-09-04T14:35:09.357Z,22.78
2022-09-04T14:38:07.519Z,22.21
2022-09-04T14:41:25.344Z,21.76
2022-09-04T14:44:12.790Z,21.64
2022-09-04T14:47:13.318Z,21.39
2022-09-04T14:50:04.276Z,21.29
2022-09-04T14:52:56.304Z,21.00
2022-09-04T14:55:39.414Z,21.02
2022-09-04T14:58:34.282Z,21.15
2022-09-04T15:01:28.490Z,21.20
2022-09-04T15:04:27.308Z,21.39
2022-09-04T15:07:34.283Z,21.44
2022-09-04T15:10:35.221Z,21.51
2022-09-04T15:28:06.821Z,20.72
2022-09-04T15:31:15.250Z,20.70
2022-09-04T15:33:55.890Z,20.80
2022-09-04T15:36:45.816Z,20.81
2022-09-04T15:39:55.127Z,20.90
2022-09-04T15:42:52.816Z,21.07
2022-09-04T15:45:49.798Z,21.28
2022-09-04T15:48:53.549Z,21.52
2022-09-04T15:51:52.779Z,21.67
2022-09-04T15:54:48.795Z,21.85
2022-09-04T15:57:39.430Z,21.93
2022-09-04T16:00:32.750Z,22.09
2022-09-04T16:03:34.783Z,22.21
2022-09-04T16:06:31.729Z,22.25
2022-09-04T16:09:42.749Z,22.06
2022-09-04T16:12:55.742Z,22.17
2022-09-04T16:15:51.008Z,22.01
2022-09-04T16:18:53.743Z,21.76
2022-09-04T16:22:22.780Z,21.16
2022-09-04T16:25:08.909Z,20.93
2022-09-04T16:28:18.790Z,20.64
2022-09-04T16:31:02.170Z,20.46
2022-09-04T16:33:53.737Z,20.38
2022-09-04T16:36:45.894Z,20.16
2022-09-04T16:39:42.761Z,19.98
2022-09-04T16:43:01.720Z,19.81
2022-09-04T16:46:08.773Z,19.71
2022-09-04T16:49:19.749Z,19.53
2022-09-04T16:52:16.700Z,19.41
2022-09-04T16:55:16.717Z,19.40
2022-09-04T16:58:15.718Z,19.24
2022-09-04T17:01:13.798Z,19.16
2022-09-04T17:04:19.708Z,19.10
2022-09-04T17:07:13.135Z,19.02
2022-09-04T17:10:15.730Z,18.93
2022-09-04T17:13:15.261Z,18.91
2022-09-04T17:16:29.700Z,18.88
2022-09-04T17:19:20.671Z,18.79
2022-09-04T17:28:54.184Z,18.74
2022-09-04T17:28:56.661Z,18.69
2022-09-04T17:29:53.929Z,18.59
2022-09-04T17:35:45.639Z,18.47
2022-09-04T17:40:44.532Z,18.41
2022-09-04T17:40:54.775Z,18.34
2022-09-04T17:42:40.831Z,18.32
2022-09-04T17:45:51.400Z,18.25
2022-09-04T17:48:48.652Z,18.14
2022-09-04T17:51:40.662Z,18.15
2022-09-04T17:54:27.143Z,18.08
2022-09-04T17:57:28.601Z,18.09
2022-09-04T18:00:20.453Z,18.10
2022-09-04T18:03:17.736Z,18.12
2022-09-04T18:06:09.594Z,18.01
2022-09-04T18:09:01.617Z,17.98
2022-09-04T18:12:00.355Z,18.02
2022-09-04T18:15:44.654Z,18.02
2022-09-04T18:18:44.790Z,17.98
2022-09-04T18:22:25.114Z,17.97
2022-09-04T18:25:25.803Z,17.90
2022-09-04T18:28:21.771Z,17.91
2022-09-04T18:37:18.719Z,17.92
2022-09-04T18:37:21.676Z,17.91
2022-09-04T18:38:10.794Z,17.87
2022-09-04T18:42:45.708Z,17.89
2022-09-04T18:50:24.350Z,17.90
2022-09-04T18:50:43.190Z,17.86
2022-09-04T18:51:19.302Z,17.83
2022-09-04T18:54:12.155Z,17.80
2022-09-04T18:57:06.483Z,17.82
2022-09-04T19:00:07.688Z,17.87
2022-09-04T19:02:59.679Z,17.86
2022-09-04T19:05:45.496Z,17.84
2022-09-04T19:08:53.642Z,17.87
2022-09-04T19:11:42.223Z,17.91
2022-09-04T19:14:36.633Z,17.91
2022-09-04T19:17:37.628Z,17.92
2022-09-04T19:20:23.877Z,17.90
2022-09-04T19:23:21.754Z,17.84
2022-09-04T19:26:07.470Z,17.80
2022-09-04T19:29:02.650Z,17.82
2022-09-04T19:32:02.684Z,17.81
2022-09-04T19:34:55.184Z,17.78
2022-09-04T19:40:58.396Z,17.75
2022-09-04T19:46:12.081Z,17.69
2022-09-04T19:46:19.312Z,17.71
2022-09-04T19:48:00.794Z,17.73
2022-09-04T19:53:22.330Z,17.69
2022-09-04T19:54:17.547Z,17.71
2022-09-04T19:57:32.857Z,17.74
2022-09-04T20:00:42.302Z,17.73
2022-09-04T20:03:46.355Z,17.71
2022-09-04T20:06:39.531Z,17.68
2022-09-04T20:09:22.892Z,17.66
2022-09-04T20:12:15.528Z,17.67
2022-09-04T20:15:04.048Z,17.64
2022-09-04T20:18:04.002Z,17.64
2022-09-04T20:20:56.216Z,17.60
2022-09-04T20:24:13.464Z,17.62
2022-09-04T20:27:22.444Z,17.60
2022-09-04T20:30:24.985Z,17.62
2022-09-04T20:33:14.480Z,17.62
2022-09-04T20:36:02.447Z,17.63
2022-09-04T20:39:17.495Z,17.67
2022-09-04T20:42:13.438Z,17.62
2022-09-04T20:50:46.626Z,17.62
2022-09-04T20:53:00.395Z,17.63
2022-09-04T20:53:07.081Z,17.50
2022-09-04T20:55:07.455Z,17.49
2022-09-04T21:02:28.342Z,17.49
2022-09-04T21:03:22.400Z,17.47
2022-09-04T21:05:11.256Z,17.41
2022-09-04T21:07:59.394Z,17.38
2022-09-04T21:10:48.231Z,17.45
2022-09-04T21:13:57.406Z,17.52
2022-09-04T21:16:55.529Z,17.59
2022-09-04T21:20:06.469Z,17.64
2022-09-04T21:22:49.556Z,17.67
2022-09-04T21:25:39.401Z,17.64
2022-09-04T21:28:33.517Z,17.55
2022-09-04T21:31:44.604Z,17.59
2022-09-04T21:34:47.398Z,17.40
2022-09-04T21:37:39.957Z,17.24
2022-09-04T21:40:51.696Z,17.04
2022-09-04T21:43:57.383Z,16.98
2022-09-04T21:46:47.418Z,16.87
2022-09-04T21:49:48.379Z,16.68
2022-09-04T21:52:56.423Z,16.65
2022-09-04T21:57:20.820Z,16.65
2022-09-04T22:02:35.110Z,16.60
2022-09-04T22:03:08.615Z,16.52
2022-09-04T22:08:22.230Z,16.43
2022-09-04T22:13:32.635Z,16.40
2022-09-04T22:13:47.829Z,16.32
2022-09-04T22:17:06.434Z,16.29
2022-09-04T22:20:13.018Z,16.21
2022-09-04T22:23:24.422Z,16.16
2022-09-04T22:26:36.443Z,16.16
2022-09-04T22:29:45.359Z,16.12
2022-09-04T22:32:38.354Z,16.06
2022-09-04T22:35:25.287Z,16.06
2022-09-04T22:38:43.331Z,16.14
2022-09-04T22:41:48.284Z,16.03
2022-09-04T22:45:10.158Z,16.07
2022-09-04T22:47:57.336Z,16.02
2022-09-04T22:51:03.718Z,15.92
2022-09-04T22:54:12.333Z,15.90
2022-09-04T22:57:08.409Z,15.87
2022-09-04T23:00:01.448Z,15.79
2022-09-04T23:03:22.550Z,15.77
2022-09-04T23:10:30.671Z,15.73
2022-09-04T23:13:50.841Z,15.62
2022-09-04T23:14:02.316Z,15.64
2022-09-04T23:16:46.301Z,15.63
2022-09-04T23:26:34.951Z,15.62
2022-09-04T23:26:41.903Z,15.58
2022-09-04T23:26:58.723Z,15.51
2022-09-04T23:30:13.954Z,15.47
2022-09-04T23:33:00.280Z,15.48
2022-09-04T23:36:04.334Z,15.44
2022-09-04T23:38:57.123Z,15.42
2022-09-04T23:41:57.283Z,15.40
2022-09-04T23:45:00.547Z,15.46
2022-09-04T23:48:11.236Z,15.40
2022-09-04T23:51:06.361Z,15.41
2022-09-04T23:54:24.991Z,15.38
2022-09-04T23:57:26.618Z,15.39
